Time;durP1;ratioP1;P1;durP2;ratioP2;P2;SDS_P1;SDS_P2;PMS_P1;PMS_P2;Temp;Humidity;BMP_temperature;BMP_pressure;BME280_temperature;BME280_humidity;BME280_pressure;Samples;Min_cycle;Max_cycle;Signal;HPM_P1;HPM_P2
2022/07/17 00:00:53;;;;;;;9.77;2.67;;;16.30;99.90;;;;;;5010853;28;20426;-73
2022/07/17 00:03:19;;;;;;;3.80;2.83;;;16.30;99.90;;;;;;5010949;28;20202;-73
2022/07/17 00:05:45;;;;;;;3.63;2.70;;;16.20;99.90;;;;;;5010838;28;20270;-73
2022/07/17 00:08:11;;;;;;;3.43;2.90;;;15.90;99.90;;;;;;4992758;28;20655;-73
2022/07/17 00:10:40;;;;;;;3.77;3.17;;;15.60;99.90;;;;;;5010566;28;20218;-73
2022/07/17 00:13:06;;;;;;;4.73;2.80;;;15.50;99.90;;;;;;5010024;28;20792;-73
2022/07/17 00:15:32;;;;;;;5.73;2.43;;;15.60;99.90;;;;;;5010434;28;20928;-73
2022/07/17 00:17:59;;;;;;;7.80;2.50;;;15.70;99.90;;;;;;5010262;28;20434;-72
2022/07/17 00:20:27;;;;;;;19.20;4.17;;;15.60;99.90;;;;;;4992767;28;20415;-72
2022/07/17 00:22:54;;;;;;;10.83;3.10;;;15.60;99.90;;;;;;5010525;28;20414;-73
2022/07/17 00:25:20;;;;;;;15.43;3.53;;;15.60;99.90;;;;;;5010232;28;20468;-72
2022/07/17 00:27:45;;;;;;;14.37;3.23;;;15.60;99.90;;;;;;5010178;28;20433;-72
2022/07/17 00:30:12;;;;;;;10.83;3.20;;;15.50;99.90;;;;;;5010033;28;20954;-72
2022/07/17 00:32:38;;;;;;;5.03;2.43;;;15.40;99.90;;;;;;5010108;28;20221;-73
2022/07/17 00:35:04;;;;;;;8.10;2.10;;;15.40;99.90;;;;;;4976012;28;20434;-73
2022/07/17 00:37:30;;;;;;;5.00;2.47;;;15.40;99.90;;;;;;5009580;28;20203;-73
2022/07/17 00:39:55;;;;;;;4.90;2.93;;;15.40;99.90;;;;;;5009447;28;20491;-73
2022/07/17 00:42:21;;;;;;;2.33;2.00;;;15.50;99.90;;;;;;5009459;28;20188;-73
2022/07/17 00:44:47;;;;;;;3.67;3.10;;;15.50;99.90;;;;;;5009407;28;20207;-73
2022/07/17 00:47:15;;;;;;;3.10;2.90;;;15.50;99.90;;;;;;5009326;28;20231;-73
2022/07/17 00:49:41;;;;;;;3.93;2.63;;;15.40;99.90;;;;;;5009369;28;20846;-74
2022/07/17 00:52:08;;;;;;;4.50;2.60;;;15.30;99.90;;;;;;5009304;28;20467;-74
2022/07/17 00:54:39;;;;;;;3.63;2.40;;;15.30;99.90;;;;;;5009555;28;20173;-74
2022/07/17 00:57:08;;;;;;;5.83;3.17;;;15.20;99.90;;;;;;4991741;28;20442;-75
2022/07/17 00:59:34;;;;;;;3.57;2.80;;;15.10;99.90;;;;;;4991765;28;20485;-73
2022/07/17 01:02:04;;;;;;;2.40;2.20;;;15.00;99.90;;;;;;5009461;28;20418;-73
2022/07/17 01:04:31;;;;;;;5.23;2.70;;;15.10;99.90;;;;;;4991896;28;20462;-73
2022/07/17 01:06:58;;;;;;;5.03;2.97;;;15.10;99.90;;;;;;4990939;28;20475;-73
2022/07/17 01:09:23;;;;;;;6.70;2.70;;;15.10;99.90;;;;;;5009181;28;20426;-73
2022/07/17 01:11:50;;;;;;;3.13;2.60;;;15.20;99.90;;;;;;5009066;28;20476;-74
2022/07/17 01:14:16;;;;;;;4.73;3.00;;;15.30;99.90;;;;;;5009576;28;20953;-73
2022/07/17 01:16:43;;;;;;;2.93;2.43;;;15.30;99.90;;;;;;4991453;28;20446;-73
2022/07/17 01:19:11;;;;;;;9.97;3.40;;;15.30;99.90;;;;;;5009223;28;20413;-73
2022/07/17 01:21:45;;;;;;;7.10;3.37;;;15.30;99.90;;;;;;5009019;28;20436;-73
2022/07/17 01:24:12;;;;;;;3.50;2.80;;;15.20;99.90;;;;;;5008137;28;20770;-72
2022/07/17 01:26:41;;;;;;;3.53;2.77;;;15.10;99.90;;;;;;5008973;28;20436;-72
2022/07/17 01:29:08;;;;;;;3.73;3.00;;;15.10;99.90;;;;;;5009501;28;20440;-72
2022/07/17 01:31:33;;;;;;;2.90;2.63;;;15.00;99.90;;;;;;4993314;28;20532;-72
2022/07/17 01:34:01;;;;;;;5.67;3.80;;;15.10;99.90;;;;;;4975312;28;20426;-72
2022/07/17 01:36:26;;;;;;;4.23;2.73;;;15.00;99.90;;;;;;5008981;28;20202;-73
2022/07/17 01:38:52;;;;;;;5.10;2.87;;;15.00;99.90;;;;;;4991240;28;20454;-72
2022/07/17 01:41:18;;;;;;;7.30;3.07;;;14.90;99.90;;;;;;5009203;28;20264;-72
2022/07/17 01:43:43;;;;;;;2.63;2.30;;;14.90;99.90;;;;;;5009172;28;20419;-72
2022/07/17 01:46:09;;;;;;;4.50;3.20;;;14.90;99.90;;;;;;5009549;28;20207;-72
2022/07/17 01:48:35;;;;;;;2.83;2.57;;;14.90;99.90;;;;;;5009185;28;20210;-72
2022/07/17 01:51:02;;;;;;;3.33;2.80;;;14.90;99.90;;;;;;5009003;28;20209;-72
2022/07/17 01:53:27;;;;;;;4.20;2.70;;;14.80;99.90;;;;;;5009057;28;20188;-72
2022/07/17 01:55:53;;;;;;;2.80;2.60;;;14.70;99.90;;;;;;5009093;28;20785;-73
2022/07/17 01:58:19;;;;;;;5.03;2.63;;;14.80;99.90;;;;;;4991109;28;20191;-72
2022/07/17 02:00:45;;;;;;;4.80;2.67;;;14.80;99.90;;;;;;5008944;28;20420;-73
2022/07/17 02:03:11;;;;;;;2.40;2.30;;;14.80;99.90;;;;;;4990994;28;20421;-73
2022/07/17 02:05:37;;;;;;;6.13;3.40;;;14.90;99.90;;;;;;5008255;28;20553;-73
2022/07/17 02:08:02;;;;;;;5.53;3.00;;;14.80;99.90;;;;;;5008177;28;20562;-73
2022/07/17 02:10:28;;;;;;;2.83;2.63;;;14.80;99.90;;;;;;4990362;28;20435;-73
2022/07/17 02:12:54;;;;;;;3.50;3.10;;;14.70;99.90;;;;;;5008236;28;20190;-73
2022/07/17 02:15:19;;;;;;;3.27;3.00;;;14.70;99.90;;;;;;4990383;28;20198;-74
2022/07/17 02:17:45;;;;;;;5.07;2.80;;;14.60;99.90;;;;;;5008150;28;20292;-74
2022/07/17 02:20:12;;;;;;;3.20;2.90;;;14.60;99.90;;;;;;4990238;28;20189;-74
2022/07/17 02:22:39;;;;;;;6.70;3.37;;;14.50;99.90;;;;;;5008049;28;20181;-74
2022/07/17 02:25:06;;;;;;;3.27;2.60;;;14.50;99.90;;;;;;4990386;28;20424;-73
2022/07/17 02:27:32;;;;;;;5.80;2.60;;;14.50;99.90;;;;;;5007964;28;20445;-73
2022/07/17 02:30:00;;;;;;;3.43;2.87;;;14.50;99.90;;;;;;4990576;28;20827;-73
2022/07/17 02:32:26;;;;;;;2.80;2.60;;;14.50;99.90;;;;;;4990877;28;20895;-72
2022/07/17 02:34:52;;;;;;;5.20;2.97;;;14.40;99.90;;;;;;5009021;28;20448;-72
2022/07/17 02:37:17;;;;;;;3.17;2.87;;;14.40;99.90;;;;;;4994327;28;20215;-74
2022/07/17 02:39:52;;;;;;;3.93;3.17;;;14.40;99.90;;;;;;5012295;28;20199;-74
2022/07/17 02:42:28;;;;;;;3.30;3.00;;;14.40;99.90;;;;;;5012380;28;20188;-73
2022/07/17 02:44:55;;;;;;;4.77;3.17;;;14.30;99.90;;;;;;5012172;28;20446;-73
2022/07/17 02:47:40;;;;;;;3.70;3.40;;;14.20;99.90;;;;;;5011843;28;20443;-73
2022/07/17 02:50:08;;;;;;;3.30;2.90;;;14.20;99.90;;;;;;4997018;28;20938;-73
2022/07/17 02:52:35;;;;;;;3.93;3.10;;;14.10;99.90;;;;;;5012050;28;20523;-73
2022/07/17 02:55:01;;;;;;;6.73;2.77;;;14.10;99.90;;;;;;5012581;28;20420;-73
2022/07/17 02:57:27;;;;;;;2.97;2.70;;;14.00;99.90;;;;;;5012682;28;20866;-73
2022/07/17 02:59:52;;;;;;;4.53;3.20;;;14.00;99.90;;;;;;4994820;28;20500;-73
2022/07/17 03:02:18;;;;;;;4.63;3.67;;;14.00;99.90;;;;;;5012797;28;20283;-73
2022/07/17 03:04:44;;;;;;;5.60;3.37;;;14.00;99.90;;;;;;5012534;28;20194;-73
2022/07/17 03:07:10;;;;;;;3.33;3.03;;;13.90;99.90;;;;;;5012723;28;20213;-73
2022/07/17 03:09:36;;;;;;;3.37;3.07;;;13.60;99.90;;;;;;5012702;28;20235;-73
2022/07/17 03:12:02;;;;;;;3.30;3.00;;;13.50;99.90;;;;;;5012493;28;20463;-73
2022/07/17 03:14:27;;;;;;;3.87;3.50;;;13.30;99.90;;;;;;5012489;28;20192;-74
2022/07/17 03:16:53;;;;;;;3.80;3.50;;;13.20;99.90;;;;;;5012317;28;20449;-73
2022/07/17 03:19:18;;;;;;;5.87;3.40;;;13.20;99.90;;;;;;5011987;28;20228;-73
2022/07/17 03:21:44;;;;;;;3.63;3.23;;;13.20;99.90;;;;;;5011662;28;20248;-73
2022/07/17 03:24:10;;;;;;;4.57;3.70;;;13.40;99.90;;;;;;5011742;28;20426;-73
2022/07/17 03:26:35;;;;;;;5.07;3.43;;;13.40;99.90;;;;;;4994128;28;20205;-73
2022/07/17 03:29:01;;;;;;;6.80;3.93;;;13.40;99.90;;;;;;5011939;28;20183;-73
2022/07/17 03:31:27;;;;;;;5.93;3.67;;;13.30;99.90;;;;;;5012262;28;20224;-73
2022/07/17 03:33:52;;;;;;;3.87;3.03;;;13.30;99.90;;;;;;4977698;28;20196;-73
2022/07/17 03:36:18;;;;;;;4.20;3.63;;;13.30;99.90;;;;;;4993681;28;20209;-73
2022/07/17 03:38:43;;;;;;;7.33;4.07;;;13.40;99.90;;;;;;5011297;28;20211;-72
2022/07/17 03:41:09;;;;;;;3.83;3.33;;;13.30;99.90;;;;;;5011399;28;20201;-73
2022/07/17 03:43:35;;;;;;;5.40;3.63;;;13.50;99.90;;;;;;4993590;28;20198;-72
2022/07/17 03:46:00;;;;;;;8.27;3.53;;;13.40;99.90;;;;;;4992869;28;20354;-72
2022/07/17 03:48:26;;;;;;;4.80;3.50;;;13.40;99.90;;;;;;5010969;28;20197;-73
2022/07/17 03:50:52;;;;;;;3.87;3.53;;;13.40;99.90;;;;;;4993413;28;20587;-73
2022/07/17 03:53:17;;;;;;;3.73;3.30;;;13.40;99.90;;;;;;4993060;28;20193;-73
2022/07/17 03:55:43;;;;;;;4.50;3.40;;;13.40;99.90;;;;;;5010968;28;20191;-73
2022/07/17 03:58:08;;;;;;;4.20;3.60;;;13.50;99.90;;;;;;5010826;28;20307;-73
2022/07/17 04:00:34;;;;;;;5.90;4.03;;;13.50;99.90;;;;;;5010822;28;20192;-74
2022/07/17 04:03:00;;;;;;;3.83;3.03;;;13.50;99.90;;;;;;5010657;28;20260;-74
2022/07/17 04:05:25;;;;;;;4.53;3.80;;;13.40;99.90;;;;;;5010741;28;20181;-74
2022/07/17 04:07:51;;;;;;;5.03;3.10;;;13.50;99.90;;;;;;4993041;28;20197;-75
2022/07/17 04:10:16;;;;;;;4.23;3.70;;;13.60;99.90;;;;;;5010640;28;20204;-73
2022/07/17 04:12:42;;;;;;;6.23;3.67;;;13.60;99.90;;;;;;4993022;28;20213;-73
2022/07/17 04:15:09;;;;;;;4.27;3.73;;;13.60;99.90;;;;;;4992525;28;20191;-73
2022/07/17 04:17:35;;;;;;;3.87;2.97;;;13.80;99.90;;;;;;4992574;28;20323;-72
2022/07/17 04:20:02;;;;;;;4.13;2.87;;;13.70;99.90;;;;;;5010387;28;21142;-72
2022/07/17 04:22:27;;;;;;;8.60;3.60;;;13.80;99.90;;;;;;5010409;28;21161;-73
2022/07/17 04:24:53;;;;;;;10.87;3.37;;;13.80;99.90;;;;;;4992870;28;20420;-74
2022/07/17 04:27:18;;;;;;;3.67;2.90;;;13.80;99.90;;;;;;5011683;28;20228;-77
2022/07/17 04:29:44;;;;;;;3.70;3.40;;;13.80;99.90;;;;;;4993292;28;20526;-77
2022/07/17 04:32:10;;;;;;;4.77;3.37;;;13.90;99.90;;;;;;5009605;28;20220;-74
2022/07/17 04:34:36;;;;;;;4.83;3.57;;;14.00;99.90;;;;;;4992272;28;20574;-74
2022/07/17 04:37:03;;;;;;;3.30;3.00;;;14.10;99.90;;;;;;5009999;28;20215;-72
2022/07/17 04:39:30;;;;;;;5.20;3.77;;;14.20;99.90;;;;;;5009525;28;20447;-73
2022/07/17 04:41:55;;;;;;;7.53;3.60;;;14.30;99.90;;;;;;5009624;28;20416;-72
2022/07/17 04:44:24;;;;;;;3.83;3.43;;;14.30;99.90;;;;;;5009367;28;20440;-74
2022/07/17 04:46:49;;;;;;;5.23;3.07;;;14.40;99.90;;;;;;5009255;28;20441;-76
2022/07/17 04:49:15;;;;;;;5.60;4.23;;;14.40;99.90;;;;;;4991722;28;20494;-73
2022/07/17 04:51:41;;;;;;;5.93;3.40;;;14.50;99.90;;;;;;5009297;28;20230;-73
2022/07/17 04:54:07;;;;;;;6.00;3.40;;;14.60;99.90;;;;;;4991331;28;20280;-73
2022/07/17 04:56:32;;;;;;;6.17;3.53;;;14.60;99.90;;;;;;4991549;28;20215;-75
2022/07/17 04:58:58;;;;;;;7.90;3.77;;;14.70;99.90;;;;;;4991369;28;20193;-73
2022/07/17 05:01:23;;;;;;;4.77;3.20;;;14.80;99.90;;;;;;5009137;28;20191;-73
2022/07/17 05:03:50;;;;;;;5.10;3.20;;;14.80;99.90;;;;;;5009300;28;20197;-72
2022/07/17 05:06:15;;;;;;;6.93;2.87;;;14.80;99.90;;;;;;4991795;28;20201;-72
2022/07/17 05:08:41;;;;;;;3.67;3.00;;;14.90;99.90;;;;;;5009649;28;20501;-72
2022/07/17 05:11:07;;;;;;;5.20;3.33;;;14.80;99.90;;;;;;5009555;28;20224;-73
2022/07/17 05:13:32;;;;;;;5.00;3.60;;;14.90;99.90;;;;;;5009444;28;20191;-73
2022/07/17 05:15:58;;;;;;;4.20;2.83;;;15.00;99.90;;;;;;5009519;28;20881;-75
2022/07/17 05:18:23;;;;;;;4.90;3.17;;;15.00;99.90;;;;;;4991620;28;20582;-75
2022/07/17 05:20:49;;;;;;;5.50;3.43;;;15.20;99.90;;;;;;5009301;28;20192;-74
2022/07/17 05:23:15;;;;;;;4.77;3.10;;;15.30;99.90;;;;;;5009441;28;20272;-74
2022/07/17 05:25:41;;;;;;;12.90;4.00;;;15.50;99.90;;;;;;5010063;28;20194;-73
2022/07/17 05:28:06;;;;;;;3.90;3.37;;;15.60;99.90;;;;;;5011125;28;20206;-74
2022/07/17 05:30:32;;;;;;;8.50;3.40;;;15.70;99.90;;;;;;4996320;28;20183;-74
2022/07/17 05:32:57;;;;;;;7.67;3.50;;;15.90;99.90;;;;;;4996718;28;20277;-74
2022/07/17 05:35:23;;;;;;;3.90;3.07;;;16.00;99.90;;;;;;5014262;28;20549;-75
2022/07/17 05:37:49;;;;;;;4.03;3.43;;;16.10;99.90;;;;;;4998377;28;20529;-75
2022/07/17 05:40:14;;;;;;;6.27;3.77;;;16.10;99.90;;;;;;4998159;28;20202;-76
2022/07/17 05:42:40;;;;;;;5.90;4.73;;;16.20;99.90;;;;;;5016038;28;20178;-75
2022/07/17 05:45:06;;;;;;;5.93;4.03;;;16.30;99.90;;;;;;4997242;28;20191;-75
2022/07/17 05:47:32;;;;;;;5.43;3.93;;;16.40;99.90;;;;;;4994699;28;20218;-75
2022/07/17 05:49:57;;;;;;;8.53;4.73;;;16.50;99.90;;;;;;5011399;28;20426;-75
2022/07/17 05:52:23;;;;;;;7.10;4.27;;;16.60;99.90;;;;;;5010705;28;20211;-75
2022/07/17 05:54:49;;;;;;;8.03;3.83;;;16.70;99.90;;;;;;4991541;28;20191;-75
2022/07/17 05:57:15;;;;;;;5.20;3.20;;;17.00;99.90;;;;;;5008598;28;20200;-74
2022/07/17 05:59:41;;;;;;;8.53;3.67;;;17.10;99.90;;;;;;5008386;28;20423;-75
2022/07/17 06:02:06;;;;;;;3.90;3.50;;;17.20;99.90;;;;;;4991157;28;20195;-74
2022/07/17 06:04:33;;;;;;;6.47;4.10;;;17.30;99.90;;;;;;4990612;28;20197;-74
2022/07/17 06:06:58;;;;;;;7.43;4.20;;;17.50;99.90;;;;;;5008281;28;20696;-74
2022/07/17 06:09:24;;;;;;;4.87;3.97;;;17.50;99.90;;;;;;5008520;28;20424;-75
2022/07/17 06:11:49;;;;;;;6.57;4.53;;;17.60;99.90;;;;;;4994288;28;20216;-76
2022/07/17 06:14:16;;;;;;;4.37;3.97;;;17.80;99.90;;;;;;4994260;28;20196;-76
2022/07/17 06:16:41;;;;;;;11.10;3.70;;;17.90;99.90;;;;;;5011813;28;20231;-76
2022/07/17 06:19:07;;;;;;;3.87;3.40;;;17.90;99.90;;;;;;4994017;28;20464;-75
2022/07/17 06:21:33;;;;;;;7.50;3.40;;;18.10;99.90;;;;;;4993781;28;20202;-76
2022/07/17 06:23:58;;;;;;;5.90;3.83;;;18.30;99.90;;;;;;4993945;28;20190;-75
2022/07/17 06:26:24;;;;;;;4.90;3.57;;;18.50;99.90;;;;;;4993681;28;20695;-75
2022/07/17 06:28:50;;;;;;;4.87;4.27;;;18.60;99.90;;;;;;5011476;28;20296;-75
2022/07/17 06:31:16;;;;;;;8.13;4.20;;;18.70;99.90;;;;;;5011503;28;20692;-76
2022/07/17 06:33:41;;;;;;;5.23;4.17;;;18.80;99.90;;;;;;4993571;28;20535;-74
2022/07/17 06:36:07;;;;;;;7.60;4.37;;;18.90;99.90;;;;;;4993675;28;20483;-75
2022/07/17 06:38:33;;;;;;;8.77;4.53;;;19.00;99.90;;;;;;5011334;28;20224;-75
2022/07/17 06:41:00;;;;;;;4.50;3.83;;;19.10;99.90;;;;;;4993567;28;20186;-76
2022/07/17 06:43:26;;;;;;;8.37;4.90;;;19.20;99.90;;;;;;4993400;28;20830;-75
2022/07/17 06:45:53;;;;;;;4.50;4.10;;;19.30;99.90;;;;;;5011234;28;20422;-75
2022/07/17 06:48:20;;;;;;;6.03;4.10;;;19.30;99.90;;;;;;4994050;28;20648;-75
2022/07/17 06:50:46;;;;;;;7.13;3.60;;;19.40;99.90;;;;;;4977073;28;20510;-74
2022/07/17 06:53:12;;;;;;;7.50;4.10;;;19.50;99.90;;;;;;4993573;28;20861;-76
2022/07/17 06:55:38;;;;;;;8.17;3.33;;;19.50;99.90;;;;;;4993656;28;20184;-76
2022/07/17 06:58:04;;;;;;;6.13;3.53;;;19.80;99.90;;;;;;5011375;28;20444;-75
2022/07/17 07:00:30;;;;;;;5.20;3.60;;;19.90;99.90;;;;;;5011148;28;20255;-75
2022/07/17 07:02:55;;;;;;;5.00;3.83;;;19.80;99.90;;;;;;4993408;28;20212;-75
2022/07/17 07:05:21;;;;;;;3.70;2.80;;;19.80;99.90;;;;;;5011303;28;20848;-75
2022/07/17 07:07:47;;;;;;;2.93;2.73;;;20.00;99.90;;;;;;5011423;28;20205;-75
2022/07/17 07:10:13;;;;;;;3.30;2.93;;;20.00;99.90;;;;;;4992456;28;20188;-74
2022/07/17 07:12:38;;;;;;;6.10;2.90;;;20.00;99.00;;;;;;5009973;28;20223;-74
2022/07/17 07:15:04;;;;;;;6.30;3.03;;;20.10;99.20;;;;;;5009658;28;20793;-74
2022/07/17 07:17:31;;;;;;;4.63;2.90;;;20.20;99.80;;;;;;4992247;28;20422;-75
2022/07/17 07:19:58;;;;;;;4.37;2.97;;;20.30;99.20;;;;;;5009873;28;20429;-74
2022/07/17 07:22:24;;;;;;;4.23;3.00;;;20.30;98.40;;;;;;5008074;28;20426;-75
2022/07/17 07:24:49;;;;;;;3.37;2.80;;;20.30;96.50;;;;;;4991501;28;20432;-74
2022/07/17 07:27:15;;;;;;;5.60;2.70;;;20.20;97.50;;;;;;5009153;28;20236;-74
2022/07/17 07:29:40;;;;;;;3.80;3.40;;;20.20;96.90;;;;;;5008979;28;20756;-75
2022/07/17 07:32:06;;;;;;;4.23;2.97;;;20.30;96.50;;;;;;4991275;28;20208;-75
2022/07/17 07:34:32;;;;;;;3.03;2.53;;;20.30;96.50;;;;;;4992282;28;20237;-75
2022/07/17 07:36:57;;;;;;;14.53;2.30;;;20.30;96.00;;;;;;5009363;28;20205;-74
2022/07/17 07:39:23;;;;;;;2.70;2.10;;;20.40;94.00;;;;;;4992048;28;20225;-75
2022/07/17 07:41:49;;;;;;;3.70;2.13;;;20.40;94.80;;;;;;4992014;28;20185;-75
2022/07/17 07:44:14;;;;;;;4.87;2.87;;;20.40;92.60;;;;;;5009603;28;20661;-76
2022/07/17 07:46:40;;;;;;;3.90;2.90;;;20.40;93.80;;;;;;5009589;28;20283;-75
2022/07/17 07:49:06;;;;;;;5.47;2.87;;;20.40;95.00;;;;;;4991990;28;20798;-74
2022/07/17 07:51:31;;;;;;;3.97;2.83;;;20.40;94.60;;;;;;5009442;28;20295;-75
2022/07/17 07:53:57;;;;;;;4.40;2.60;;;20.50;95.60;;;;;;4975439;28;20598;-75
2022/07/17 07:56:23;;;;;;;3.10;2.50;;;20.70;94.70;;;;;;5009233;28;20205;-76
2022/07/17 07:58:48;;;;;;;2.60;2.40;;;20.70;95.60;;;;;;5009407;28;20183;-75
2022/07/17 08:01:14;;;;;;;2.90;2.50;;;20.70;94.00;;;;;;5009365;28;20744;-76
2022/07/17 08:03:40;;;;;;;8.90;2.90;;;20.70;94.30;;;;;;4991019;28;20185;-77
2022/07/17 08:06:06;;;;;;;26.23;3.60;;;20.80;95.30;;;;;;4974849;28;20529;-75
2022/07/17 08:08:31;;;;;;;3.40;3.03;;;21.00;96.20;;;;;;4991229;28;20196;-75
2022/07/17 08:10:57;;;;;;;5.93;3.03;;;21.00;96.70;;;;;;5008559;28;20599;-77
2022/07/17 08:13:22;;;;;;;4.47;3.00;;;21.20;97.90;;;;;;5008693;28;20185;-77
2022/07/17 08:15:48;;;;;;;2.90;2.70;;;21.30;97.70;;;;;;5008720;28;20188;-75
2022/07/17 08:18:13;;;;;;;3.47;3.17;;;21.40;97.20;;;;;;4991172;28;20891;-74
2022/07/17 08:20:39;;;;;;;5.00;3.30;;;21.40;96.80;;;;;;4991014;28;20236;-76
2022/07/17 08:23:05;;;;;;;6.97;3.23;;;21.60;96.90;;;;;;5008705;28;20191;-76
2022/07/17 08:25:31;;;;;;;5.63;3.17;;;21.70;97.30;;;;;;5008579;28;20190;-76
2022/07/17 08:27:57;;;;;;;5.30;3.57;;;21.90;96.90;;;;;;5008510;28;20204;-75
2022/07/17 08:30:23;;;;;;;18.63;3.77;;;22.00;96.10;;;;;;5008711;28;21026;-76
2022/07/17 08:32:48;;;;;;;3.90;2.60;;;22.20;95.60;;;;;;5008225;28;20477;-74
2022/07/17 08:35:14;;;;;;;5.67;3.10;;;22.40;95.60;;;;;;5008360;28;20178;-75
2022/07/17 08:37:48;;;;;;;3.87;2.87;;;22.50;94.90;;;;;;4990651;28;20207;-75
2022/07/17 08:40:30;;;;;;;4.73;3.10;;;22.70;95.90;;;;;;5008577;28;20453;-75
2022/07/17 08:42:58;;;;;;;7.30;2.97;;;22.90;94.10;;;;;;5008858;28;20439;-76
2022/07/17 08:45:24;;;;;;;2.70;2.50;;;23.00;94.70;;;;;;4991003;28;20962;-76
2022/07/17 08:47:52;;;;;;;3.43;3.13;;;23.10;94.40;;;;;;4991177;28;20448;-76
2022/07/17 08:50:23;;;;;;;4.63;3.50;;;23.20;92.70;;;;;;4990964;28;20753;-76
2022/07/17 08:52:49;;;;;;;11.90;2.90;;;23.30;93.10;;;;;;5008651;28;20490;-75
2022/07/17 08:55:15;;;;;;;4.13;3.13;;;23.50;92.10;;;;;;5008861;28;20424;-77
2022/07/17 08:57:44;;;;;;;2.90;2.47;;;23.70;91.70;;;;;;5008742;28;20440;-76
2022/07/17 09:00:12;;;;;;;7.23;3.03;;;23.80;91.10;;;;;;5008626;28;20656;-76
2022/07/17 09:02:39;;;;;;;4.80;3.03;;;24.00;91.00;;;;;;5008356;28;20423;-76
2022/07/17 09:05:06;;;;;;;6.13;2.63;;;24.10;91.00;;;;;;5009005;28;21070;-75
2022/07/17 09:07:32;;;;;;;3.57;2.63;;;24.30;89.30;;;;;;4973738;28;20443;-75
2022/07/17 09:09:58;;;;;;;4.33;2.50;;;24.50;90.30;;;;;;4989578;28;20461;-75
2022/07/17 09:12:29;;;;;;;1.87;1.77;;;24.70;87.10;;;;;;5007551;28;20478;-75
2022/07/17 09:14:55;;;;;;;3.27;2.50;;;24.90;85.30;;;;;;5007770;28;20505;-75
2022/07/17 09:17:24;;;;;;;3.00;2.40;;;25.10;82.90;;;;;;5007819;28;20536;-75
2022/07/17 09:19:50;;;;;;;5.07;2.40;;;25.40;80.30;;;;;;5007610;28;20761;-75
2022/07/17 09:22:24;;;;;;;2.40;1.87;;;25.80;75.50;;;;;;4989793;28;20450;-75
2022/07/17 09:24:51;;;;;;;2.60;2.40;;;25.90;69.40;;;;;;4990288;28;20179;-76
2022/07/17 09:27:23;;;;;;;4.10;2.33;;;26.10;69.80;;;;;;5008838;28;20969;-75
2022/07/17 09:30:11;;;;;;;8.10;2.60;;;26.30;69.20;;;;;;5008012;28;20420;-75
2022/07/17 09:32:39;;;;;;;3.23;2.40;;;26.70;70.30;;;;;;5007304;28;21059;-75
2022/07/17 09:35:10;;;;;;;3.07;2.37;;;26.90;67.50;;;;;;5007561;28;20454;-75
2022/07/17 09:37:36;;;;;;;2.40;2.20;;;27.00;66.00;;;;;;4990340;28;20443;-75
2022/07/17 09:40:10;;;;;;;8.53;2.23;;;27.30;66.40;;;;;;5008138;28;20449;-77
2022/07/17 09:42:35;;;;;;;24.13;3.20;;;27.10;62.70;;;;;;5008709;28;20404;-75
2022/07/17 09:45:08;;;;;;;7.80;2.50;;;27.40;62.80;;;;;;5009469;28;20426;-75
2022/07/17 09:47:35;;;;;;;5.50;2.27;;;27.70;64.10;;;;;;5011848;28;20205;-75
2022/07/17 09:50:02;;;;;;;2.70;2.40;;;28.00;62.40;;;;;;5012316;28;20921;-76
2022/07/17 09:52:33;;;;;;;2.30;2.10;;;27.90;60.20;;;;;;5011600;28;21378;-75
2022/07/17 09:55:01;;;;;;;2.90;2.60;;;28.00;60.90;;;;;;4994515;28;20527;-75
2022/07/17 09:57:32;;;;;;;2.80;2.33;;;28.40;61.80;;;;;;5011668;28;20934;-76
2022/07/17 10:00:06;;;;;;;2.50;2.30;;;28.60;60.00;;;;;;5011942;28;20547;-75
2022/07/17 10:02:33;;;;;;;3.90;1.83;;;29.00;57.00;;;;;;4994875;28;20479;-75
2022/07/17 10:04:58;;;;;;;2.50;2.30;;;28.80;56.70;;;;;;4994125;28;20420;-75
2022/07/17 10:07:24;;;;;;;2.67;2.40;;;28.80;56.30;;;;;;4993790;28;20458;-76
2022/07/17 10:09:50;;;;;;;3.73;2.90;;;29.00;57.80;;;;;;4993737;28;20578;-75
2022/07/17 10:12:16;;;;;;;3.30;2.63;;;29.30;57.60;;;;;;5011331;28;20251;-74
2022/07/17 10:14:43;;;;;;;2.77;1.80;;;29.20;58.20;;;;;;4993812;28;20185;-75
2022/07/17 10:17:13;;;;;;;2.07;1.90;;;28.80;54.50;;;;;;4993217;28;20440;-74
2022/07/17 10:19:50;;;;;;;3.30;2.40;;;28.40;54.10;;;;;;4992814;28;20443;-75
2022/07/17 10:22:16;;;;;;;3.53;2.13;;;28.60;55.00;;;;;;5010738;28;20486;-74
2022/07/17 10:24:53;;;;;;;3.00;1.80;;;28.60;53.40;;;;;;5010798;28;20419;-74
2022/07/17 10:27:28;;;;;;;5.00;2.10;;;28.60;54.10;;;;;;5010662;28;20521;-75
2022/07/17 10:30:01;;;;;;;2.67;1.77;;;28.40;53.40;;;;;;5010733;28;20462;-76
2022/07/17 10:32:27;;;;;;;2.80;2.20;;;28.40;53.80;;;;;;5010762;28;20475;-77
2022/07/17 10:35:07;;;;;;;2.43;2.20;;;28.40;54.20;;;;;;5011004;28;20420;-77
2022/07/17 10:37:36;;;;;;;3.27;1.83;;;28.70;54.50;;;;;;4993326;28;20458;-77
2022/07/17 10:40:22;;;;;;;5.90;1.97;;;28.70;54.30;;;;;;5010847;28;20436;-77
2022/07/17 10:43:05;;;;;;;6.80;1.57;;;28.80;54.50;;;;;;4993259;28;20420;-77
2022/07/17 10:45:42;;;;;;;4.47;1.93;;;28.80;52.70;;;;;;4993065;28;20434;-78
2022/07/17 10:48:16;;;;;;;1.80;1.67;;;28.60;51.70;;;;;;5010944;28;20436;-77
2022/07/17 10:50:45;;;;;;;1.80;1.70;;;28.70;54.20;;;;;;5010780;28;20416;-77
2022/07/17 10:53:18;;;;;;;2.80;1.73;;;28.80;52.00;;;;;;4993257;28;20837;-76
2022/07/17 10:55:56;;;;;;;3.23;1.70;;;28.90;52.40;;;;;;5010593;28;20423;-76
2022/07/17 10:58:25;;;;;;;1.70;1.40;;;28.90;51.60;;;;;;5010869;28;20980;-77
2022/07/17 11:01:00;;;;;;;3.63;1.70;;;29.00;51.90;;;;;;4992939;28;20455;-77
2022/07/17 11:03:26;;;;;;;4.93;1.73;;;29.10;52.90;;;;;;5010996;28;20419;-77
2022/07/17 11:05:52;;;;;;;3.53;1.40;;;29.20;51.60;;;;;;4993254;28;20424;-77
2022/07/17 11:08:18;;;;;;;1.40;1.30;;;29.20;50.00;;;;;;5011244;28;20511;-77
2022/07/17 11:10:45;;;;;;;2.00;1.87;;;29.10;50.20;;;;;;4993066;28;20193;-76
2022/07/17 11:13:13;;;;;;;2.33;1.90;;;28.60;48.90;;;;;;5010775;28;20213;-77
2022/07/17 11:15:49;;;;;;;2.00;1.60;;;28.80;50.30;;;;;;5010915;28;20923;-77
2022/07/17 11:18:17;;;;;;;1.80;1.70;;;29.00;49.90;;;;;;5009912;28;20557;-77
2022/07/17 11:20:48;;;;;;;2.30;1.70;;;28.90;48.80;;;;;;5010285;28;20422;-77
2022/07/17 11:23:14;;;;;;;1.97;1.67;;;28.90;50.80;;;;;;4976402;28;20542;-77
2022/07/17 11:25:50;;;;;;;1.70;1.60;;;29.00;50.90;;;;;;4992346;28;20546;-77
2022/07/17 11:28:46;;;;;;;1.93;1.30;;;29.00;50.40;;;;;;4977371;28;20214;-77
2022/07/17 11:31:18;;;;;;;2.93;1.73;;;29.10;49.70;;;;;;5009361;28;20476;-76
2022/07/17 11:34:11;;;;;;;3.03;1.63;;;29.20;48.60;;;;;;5009494;28;20503;-77
2022/07/17 11:36:38;;;;;;;2.40;1.80;;;29.30;48.90;;;;;;4981815;28;20578;-75
2022/07/17 11:39:15;;;;;;;1.80;1.70;;;29.30;49.50;;;;;;5010280;28;20452;-76
2022/07/17 11:41:52;;;;;;;2.00;1.77;;;29.30;49.10;;;;;;4995455;28;20782;-75
2022/07/17 11:44:24;;;;;;;3.47;1.90;;;29.40;48.40;;;;;;5015130;28;20426;-76
2022/07/17 11:46:50;;;;;;;1.60;1.50;;;29.40;48.20;;;;;;5014300;28;20454;-75
2022/07/17 11:49:34;;;;;;;2.60;1.60;;;29.50;48.30;;;;;;5012934;28;20779;-75
2022/07/17 11:52:09;;;;;;;1.57;1.47;;;29.50;47.40;;;;;;4996410;28;20465;-75
2022/07/17 11:54:47;;;;;;;1.70;1.60;;;29.60;48.50;;;;;;5012785;28;20445;-75
2022/07/17 11:57:13;;;;;;;2.27;1.73;;;29.70;47.70;;;;;;5010965;28;20601;-76
2022/07/17 11:59:39;;;;;;;1.50;1.40;;;29.80;47.90;;;;;;5009065;28;20533;-75
2022/07/17 12:02:21;;;;;;;3.77;1.60;;;29.90;48.10;;;;;;5009142;28;20420;-76
2022/07/17 12:04:52;;;;;;;5.33;1.80;;;29.90;46.50;;;;;;4992241;28;20863;-76
2022/07/17 12:07:19;;;;;;;2.57;1.60;;;29.60;45.30;;;;;;4990343;28;20451;-75
2022/07/17 12:09:45;;;;;;;2.80;1.47;;;29.70;47.60;;;;;;4990839;28;21034;-75
2022/07/17 12:12:22;;;;;;;1.73;1.20;;;29.70;46.90;;;;;;5008357;28;20456;-75
2022/07/17 12:14:54;;;;;;;1.97;1.87;;;29.70;45.80;;;;;;5008579;28;20268;-75
2022/07/17 12:17:20;;;;;;;1.53;1.43;;;29.80;45.10;;;;;;5008287;28;20439;-75
2022/07/17 12:19:46;;;;;;;1.50;1.40;;;29.80;45.50;;;;;;5008443;28;20420;-75
2022/07/17 12:22:12;;;;;;;2.37;1.27;;;29.80;45.80;;;;;;5008306;28;20438;-76
2022/07/17 12:24:40;;;;;;;1.63;1.40;;;29.90;45.90;;;;;;5008805;28;20188;-76
2022/07/17 12:27:12;;;;;;;1.77;1.57;;;30.00;46.10;;;;;;4990947;28;20452;-75
2022/07/17 12:29:38;;;;;;;1.67;1.57;;;30.00;45.90;;;;;;5009046;28;20424;-76
2022/07/17 12:32:06;;;;;;;2.10;1.90;;;30.10;46.40;;;;;;4991304;28;20475;-76
2022/07/17 12:34:34;;;;;;;3.03;1.70;;;30.00;45.80;;;;;;5009030;28;20504;-76
2022/07/17 12:36:59;;;;;;;3.87;1.47;;;29.90;45.20;;;;;;4991095;28;20535;-74
2022/07/17 12:39:25;;;;;;;2.00;1.80;;;29.90;45.50;;;;;;5008580;28;20503;-75
2022/07/17 12:41:51;;;;;;;1.83;1.50;;;29.80;44.10;;;;;;5008600;28;20217;-76
2022/07/17 12:44:16;;;;;;;6.63;1.53;;;29.80;45.50;;;;;;5008613;28;20736;-76
2022/07/17 12:46:42;;;;;;;1.30;1.13;;;29.80;45.70;;;;;;5008420;28;20268;-75